sensor_id;sensor_type;location;lat;lon;timestamp;temperature;humidity
7902;DHT22;3996;49.674;10.716;2024-03-29T00:00:42;5.80;27.40
7902;DHT22;3996;49.674;10.716;2024-03-29T00:03:08;5.80;27.40
7902;DHT22;3996;49.674;10.716;2024-03-29T00:05:34;6.00;26.90
7902;DHT22;3996;49.674;10.716;2024-03-29T00:08:00;5.90;27.20
7902;DHT22;3996;49.674;10.716;2024-03-29T00:10:25;5.70;26.50
7902;DHT22;3996;49.674;10.716;2024-03-29T00:12:51;5.60;27.30
7902;DHT22;3996;49.674;10.716;2024-03-29T00:15:17;5.70;26.70
7902;DHT22;3996;49.674;10.716;2024-03-29T00:17:42;5.80;26.60
7902;DHT22;3996;49.674;10.716;2024-03-29T00:20:08;5.80;27.20
7902;DHT22;3996;49.674;10.716;2024-03-29T00:22:34;5.70;26.60
7902;DHT22;3996;49.674;10.716;2024-03-29T00:25:00;5.60;27.10
7902;DHT22;3996;49.674;10.716;2024-03-29T00:27:25;5.70;27.40
7902;DHT22;3996;49.674;10.716;2024-03-29T00:29:52;5.80;27.80
7902;DHT22;3996;49.674;10.716;2024-03-29T00:32:19;5.80;26.60
7902;DHT22;3996;49.674;10.716;2024-03-29T00:34:45;5.90;26.30
7902;DHT22;3996;49.674;10.716;2024-03-29T00:37:11;6.00;25.80
7902;DHT22;3996;49.674;10.716;2024-03-29T00:39:36;5.90;26.00
7902;DHT22;3996;49.674;10.716;2024-03-29T00:42:03;5.90;26.40
7902;DHT22;3996;49.674;10.716;2024-03-29T00:44:29;5.90;25.90
7902;DHT22;3996;49.674;10.716;2024-03-29T00:46:55;5.80;25.80
7902;DHT22;3996;49.674;10.716;2024-03-29T00:49:21;5.80;25.70
7902;DHT22;3996;49.674;10.716;2024-03-29T00:51:46;5.80;25.70
7902;DHT22;3996;49.674;10.716;2024-03-29T00:54:12;5.80;26.10
7902;DHT22;3996;49.674;10.716;2024-03-29T00:56:37;5.60;26.20
7902;DHT22;3996;49.674;10.716;2024-03-29T00:59:03;5.60;26.70
7902;DHT22;3996;49.674;10.716;2024-03-29T01:01:28;5.70;26.50
7902;DHT22;3996;49.674;10.716;2024-03-29T01:03:54;5.60;26.40
7902;DHT22;3996;49.674;10.716;2024-03-29T01:06:20;5.70;26.30
7902;DHT22;3996;49.674;10.716;2024-03-29T01:08:45;5.80;26.30
7902;DHT22;3996;49.674;10.716;2024-03-29T01:11:11;5.80;25.80
7902;DHT22;3996;49.674;10.716;2024-03-29T01:13:36;5.80;26.20
7902;DHT22;3996;49.674;10.716;2024-03-29T01:16:02;5.80;26.30
7902;DHT22;3996;49.674;10.716;2024-03-29T01:18:27;5.80;25.90
7902;DHT22;3996;49.674;10.716;2024-03-29T01:20:53;5.80;26.00
7902;DHT22;3996;49.674;10.716;2024-03-29T01:23:18;5.80;26.00
7902;DHT22;3996;49.674;10.716;2024-03-29T01:25:44;5.90;25.80
7902;DHT22;3996;49.674;10.716;2024-03-29T01:28:09;5.90;26.40
7902;DHT22;3996;49.674;10.716;2024-03-29T01:30:35;5.80;27.10
7902;DHT22;3996;49.674;10.716;2024-03-29T01:33:01;5.80;26.90
7902;DHT22;3996;49.674;10.716;2024-03-29T01:35:27;5.70;27.30
7902;DHT22;3996;49.674;10.716;2024-03-29T01:37:52;5.80;26.90
7902;DHT22;3996;49.674;10.716;2024-03-29T01:40:18;5.90;27.30
7902;DHT22;3996;49.674;10.716;2024-03-29T01:42:43;5.90;26.70
7902;DHT22;3996;49.674;10.716;2024-03-29T01:45:09;5.90;26.70
7902;DHT22;3996;49.674;10.716;2024-03-29T01:47:35;5.90;27.00
7902;DHT22;3996;49.674;10.716;2024-03-29T01:50:01;6.00;27.30
7902;DHT22;3996;49.674;10.716;2024-03-29T01:52:27;6.00;27.30
7902;DHT22;3996;49.674;10.716;2024-03-29T01:54:53;6.00;27.60
7902;DHT22;3996;49.674;10.716;2024-03-29T01:57:19;6.10;27.40
7902;DHT22;3996;49.674;10.716;2024-03-29T01:59:45;6.10;27.60
7902;DHT22;3996;49.674;10.716;2024-03-29T02:02:12;6.10;27.00
7902;DHT22;3996;49.674;10.716;2024-03-29T02:04:38;6.20;27.00
7902;DHT22;3996;49.674;10.716;2024-03-29T02:07:04;6.20;27.70
7902;DHT22;3996;49.674;10.716;2024-03-29T02:09:30;6.30;27.10
7902;DHT22;3996;49.674;10.716;2024-03-29T02:11:55;6.30;27.20
7902;DHT22;3996;49.674;10.716;2024-03-29T02:14:21;6.20;27.80
7902;DHT22;3996;49.674;10.716;2024-03-29T02:16:46;6.20;28.60
7902;DHT22;3996;49.674;10.716;2024-03-29T02:19:12;6.30;29.10
7902;DHT22;3996;49.674;10.716;2024-03-29T02:21:43;6.30;28.30
7902;DHT22;3996;49.674;10.716;2024-03-29T02:24:10;6.20;28.60
7902;DHT22;3996;49.674;10.716;2024-03-29T02:26:37;6.20;28.60
7902;DHT22;3996;49.674;10.716;2024-03-29T02:29:08;6.30;28.40
7902;DHT22;3996;49.674;10.716;2024-03-29T02:31:34;6.40;28.50
7902;DHT22;3996;49.674;10.716;2024-03-29T02:34:00;6.40;29.00
7902;DHT22;3996;49.674;10.716;2024-03-29T02:36:26;6.40;28.00
7902;DHT22;3996;49.674;10.716;2024-03-29T02:38:51;6.40;27.50
7902;DHT22;3996;49.674;10.716;2024-03-29T02:41:18;6.40;28.00
7902;DHT22;3996;49.674;10.716;2024-03-29T02:43:44;6.40;28.60
7902;DHT22;3996;49.674;10.716;2024-03-29T02:46:09;6.40;28.50
7902;DHT22;3996;49.674;10.716;2024-03-29T02:48:35;6.40;28.70
7902;DHT22;3996;49.674;10.716;2024-03-29T02:51:00;6.40;28.50
7902;DHT22;3996;49.674;10.716;2024-03-29T02:53:26;6.50;27.50
7902;DHT22;3996;49.674;10.716;2024-03-29T02:55:52;6.50;27.80
7902;DHT22;3996;49.674;10.716;2024-03-29T02:58:17;6.50;27.70
7902;DHT22;3996;49.674;10.716;2024-03-29T03:00:43;6.50;27.90
7902;DHT22;3996;49.674;10.716;2024-03-29T03:03:08;6.50;27.80
7902;DHT22;3996;49.674;10.716;2024-03-29T03:05:34;6.50;27.60
7902;DHT22;3996;49.674;10.716;2024-03-29T03:07:59;6.60;27.70
7902;DHT22;3996;49.674;10.716;2024-03-29T03:10:47;6.60;27.50
7902;DHT22;3996;49.674;10.716;2024-03-29T03:13:21;6.60;27.30
7902;DHT22;3996;49.674;10.716;2024-03-29T03:15:47;6.60;27.50
7902;DHT22;3996;49.674;10.716;2024-03-29T03:18:12;6.60;27.30
7902;DHT22;3996;49.674;10.716;2024-03-29T03:20:38;6.60;27.50
7902;DHT22;3996;49.674;10.716;2024-03-29T03:23:04;6.60;27.30
7902;DHT22;3996;49.674;10.716;2024-03-29T03:25:29;6.70;27.10
7902;DHT22;3996;49.674;10.716;2024-03-29T03:27:55;6.70;27.00
7902;DHT22;3996;49.674;10.716;2024-03-29T03:30:21;6.70;26.70
7902;DHT22;3996;49.674;10.716;2024-03-29T03:32:47;6.70;26.60
7902;DHT22;3996;49.674;10.716;2024-03-29T03:35:13;6.80;26.40
7902;DHT22;3996;49.674;10.716;2024-03-29T03:37:39;6.80;26.40
7902;DHT22;3996;49.674;10.716;2024-03-29T03:40:05;6.80;26.20
7902;DHT22;3996;49.674;10.716;2024-03-29T03:42:32;6.80;26.40
7902;DHT22;3996;49.674;10.716;2024-03-29T03:44:58;6.80;26.30
7902;DHT22;3996;49.674;10.716;2024-03-29T03:47:24;6.80;26.60
7902;DHT22;3996;49.674;10.716;2024-03-29T03:49:49;6.80;26.30
7902;DHT22;3996;49.674;10.716;2024-03-29T03:52:15;6.80;26.20
7902;DHT22;3996;49.674;10.716;2024-03-29T03:54:41;6.80;26.30
7902;DHT22;3996;49.674;10.716;2024-03-29T03:57:06;6.90;26.20
7902;DHT22;3996;49.674;10.716;2024-03-29T03:59:32;6.80;26.00
7902;DHT22;3996;49.674;10.716;2024-03-29T04:01:57;6.90;26.10
7902;DHT22;3996;49.674;10.716;2024-03-29T04:04:23;6.90;25.90
7902;DHT22;3996;49.674;10.716;2024-03-29T04:06:49;6.90;25.40
7902;DHT22;3996;49.674;10.716;2024-03-29T04:09:14;6.90;25.60
7902;DHT22;3996;49.674;10.716;2024-03-29T04:11:43;6.90;25.20
7902;DHT22;3996;49.674;10.716;2024-03-29T04:14:09;7.00;25.50
7902;DHT22;3996;49.674;10.716;2024-03-29T04:16:35;7.00;24.50
7902;DHT22;3996;49.674;10.716;2024-03-29T04:19:00;7.00;23.80
7902;DHT22;3996;49.674;10.716;2024-03-29T04:21:26;7.10;24.00
7902;DHT22;3996;49.674;10.716;2024-03-29T04:23:52;7.10;24.20
7902;DHT22;3996;49.674;10.716;2024-03-29T04:26:17;7.10;23.70
7902;DHT22;3996;49.674;10.716;2024-03-29T04:28:43;7.10;23.20
7902;DHT22;3996;49.674;10.716;2024-03-29T04:31:08;7.20;23.00
7902;DHT22;3996;49.674;10.716;2024-03-29T04:33:34;7.20;23.60
7902;DHT22;3996;49.674;10.716;2024-03-29T04:36:02;7.20;23.00
7902;DHT22;3996;49.674;10.716;2024-03-29T04:38:29;7.30;22.80
7902;DHT22;3996;49.674;10.716;2024-03-29T04:40:56;7.30;21.70
7902;DHT22;3996;49.674;10.716;2024-03-29T04:43:26;7.40;21.30
7902;DHT22;3996;49.674;10.716;2024-03-29T04:48:37;7.50;20.90
7902;DHT22;3996;49.674;10.716;2024-03-29T04:51:04;7.50;21.50
7902;DHT22;3996;49.674;10.716;2024-03-29T04:53:29;7.50;21.20
7902;DHT22;3996;49.674;10.716;2024-03-29T04:55:58;7.50;21.50
7902;DHT22;3996;49.674;10.716;2024-03-29T04:58:25;7.50;21.60
7902;DHT22;3996;49.674;10.716;2024-03-29T05:00:51;7.60;21.90
7902;DHT22;3996;49.674;10.716;2024-03-29T05:03:18;7.60;21.10
7902;DHT22;3996;49.674;10.716;2024-03-29T05:05:44;7.60;19.70
7902;DHT22;3996;49.674;10.716;2024-03-29T05:08:10;7.70;19.20
7902;DHT22;3996;49.674;10.716;2024-03-29T05:10:35;7.80;18.60
7902;DHT22;3996;49.674;10.716;2024-03-29T05:13:01;7.80;18.40
7902;DHT22;3996;49.674;10.716;2024-03-29T05:15:27;7.90;17.90
7902;DHT22;3996;49.674;10.716;2024-03-29T05:17:52;8.00;16.90
7902;DHT22;3996;49.674;10.716;2024-03-29T05:20:21;8.00;17.50
7902;DHT22;3996;49.674;10.716;2024-03-29T05:22:47;8.00;17.80
7902;DHT22;3996;49.674;10.716;2024-03-29T05:25:12;8.00;17.70
7902;DHT22;3996;49.674;10.716;2024-03-29T05:27:38;8.00;17.50
7902;DHT22;3996;49.674;10.716;2024-03-29T05:30:04;8.20;14.40
7902;DHT22;3996;49.674;10.716;2024-03-29T05:32:30;8.40;13.60
7902;DHT22;3996;49.674;10.716;2024-03-29T05:34:56;8.40;14.30
7902;DHT22;3996;49.674;10.716;2024-03-29T05:37:22;8.40;14.70
7902;DHT22;3996;49.674;10.716;2024-03-29T05:39:50;8.50;14.60
7902;DHT22;3996;49.674;10.716;2024-03-29T05:42:27;8.40;15.40
7902;DHT22;3996;49.674;10.716;2024-03-29T05:44:53;8.40;15.80
7902;DHT22;3996;49.674;10.716;2024-03-29T05:47:19;8.30;15.80
7902;DHT22;3996;49.674;10.716;2024-03-29T05:49:45;8.30;16.40
7902;DHT22;3996;49.674;10.716;2024-03-29T05:52:11;8.30;17.00
7902;DHT22;3996;49.674;10.716;2024-03-29T05:54:40;8.20;18.20
7902;DHT22;3996;49.674;10.716;2024-03-29T05:57:05;8.10;19.70
7902;DHT22;3996;49.674;10.716;2024-03-29T05:59:32;8.10;19.00
7902;DHT22;3996;49.674;10.716;2024-03-29T06:01:58;8.10;18.60
7902;DHT22;3996;49.674;10.716;2024-03-29T06:04:23;8.10;18.00
7902;DHT22;3996;49.674;10.716;2024-03-29T06:06:56;8.20;18.60
7902;DHT22;3996;49.674;10.716;2024-03-29T06:09:23;8.10;20.40
7902;DHT22;3996;49.674;10.716;2024-03-29T06:11:49;8.10;22.80
7902;DHT22;3996;49.674;10.716;2024-03-29T06:14:14;8.10;23.80
7902;DHT22;3996;49.674;10.716;2024-03-29T06:17:00;8.10;20.80
7902;DHT22;3996;49.674;10.716;2024-03-29T06:19:44;8.10;20.80
7902;DHT22;3996;49.674;10.716;2024-03-29T06:22:10;8.10;22.40
7902;DHT22;3996;49.674;10.716;2024-03-29T06:24:35;8.20;23.70
7902;DHT22;3996;49.674;10.716;2024-03-29T06:27:01;8.10;27.10
7902;DHT22;3996;49.674;10.716;2024-03-29T06:29:27;8.10;23.30
7902;DHT22;3996;49.674;10.716;2024-03-29T06:31:52;8.10;22.00
7902;DHT22;3996;49.674;10.716;2024-03-29T06:34:18;8.10;23.90
7902;DHT22;3996;49.674;10.716;2024-03-29T06:36:43;8.10;24.80
7902;DHT22;3996;49.674;10.716;2024-03-29T06:39:09;8.10;23.10
7902;DHT22;3996;49.674;10.716;2024-03-29T06:41:35;8.10;22.10
7902;DHT22;3996;49.674;10.716;2024-03-29T06:44:01;8.30;20.50
7902;DHT22;3996;49.674;10.716;2024-03-29T06:46:26;8.30;19.30
7902;DHT22;3996;49.674;10.716;2024-03-29T06:48:52;8.40;18.20
7902;DHT22;3996;49.674;10.716;2024-03-29T06:51:18;8.40;18.70
7902;DHT22;3996;49.674;10.716;2024-03-29T06:53:43;8.40;18.90
7902;DHT22;3996;49.674;10.716;2024-03-29T06:56:09;8.40;18.60
7902;DHT22;3996;49.674;10.716;2024-03-29T06:58:35;8.40;19.00
7902;DHT22;3996;49.674;10.716;2024-03-29T07:01:00;8.40;19.60
7902;DHT22;3996;49.674;10.716;2024-03-29T07:03:26;8.40;18.40
7902;DHT22;3996;49.674;10.716;2024-03-29T07:05:51;8.40;18.30
7902;DHT22;3996;49.674;10.716;2024-03-29T07:08:17;8.40;18.60
7902;DHT22;3996;49.674;10.716;2024-03-29T07:10:42;8.40;18.70
7902;DHT22;3996;49.674;10.716;2024-03-29T07:13:08;8.50;18.10
7902;DHT22;3996;49.674;10.716;2024-03-29T07:15:35;8.50;17.20
7902;DHT22;3996;49.674;10.716;2024-03-29T07:18:01;8.60;16.70
7902;DHT22;3996;49.674;10.716;2024-03-29T07:20:28;8.60;17.60
7902;DHT22;3996;49.674;10.716;2024-03-29T07:22:54;8.70;16.60
7902;DHT22;3996;49.674;10.716;2024-03-29T07:25:20;8.80;16.80
7902;DHT22;3996;49.674;10.716;2024-03-29T07:27:46;8.90;16.00
7902;DHT22;3996;49.674;10.716;2024-03-29T07:30:12;8.90;16.70
7902;DHT22;3996;49.674;10.716;2024-03-29T07:32:39;9.00;15.90
7902;DHT22;3996;49.674;10.716;2024-03-29T07:35:05;9.00;16.00
7902;DHT22;3996;49.674;10.716;2024-03-29T07:37:30;9.10;15.30
7902;DHT22;3996;49.674;10.716;2024-03-29T07:39:56;9.20;15.60
7902;DHT22;3996;49.674;10.716;2024-03-29T07:42:21;9.40;15.20
7902;DHT22;3996;49.674;10.716;2024-03-29T07:44:47;9.50;15.90
7902;DHT22;3996;49.674;10.716;2024-03-29T07:47:13;9.70;14.80
7902;DHT22;3996;49.674;10.716;2024-03-29T07:49:39;9.80;15.20
7902;DHT22;3996;49.674;10.716;2024-03-29T07:52:05;10.00;14.90
7902;DHT22;3996;49.674;10.716;2024-03-29T07:54:32;10.20;13.00
7902;DHT22;3996;49.674;10.716;2024-03-29T07:56:58;10.30;12.40
7902;DHT22;3996;49.674;10.716;2024-03-29T07:59:23;10.40;11.80
7902;DHT22;3996;49.674;10.716;2024-03-29T08:01:49;10.50;11.80
7902;DHT22;3996;49.674;10.716;2024-03-29T08:04:14;10.50;11.70
7902;DHT22;3996;49.674;10.716;2024-03-29T08:06:40;10.60;11.40
7902;DHT22;3996;49.674;10.716;2024-03-29T08:09:05;10.50;10.00
7902;DHT22;3996;49.674;10.716;2024-03-29T08:11:31;10.50;9.90
7902;DHT22;3996;49.674;10.716;2024-03-29T08:13:56;10.60;10.00
7902;DHT22;3996;49.674;10.716;2024-03-29T08:16:22;10.70;10.70
7902;DHT22;3996;49.674;10.716;2024-03-29T08:18:48;10.70;10.00
7902;DHT22;3996;49.674;10.716;2024-03-29T08:21:14;10.80;10.10
7902;DHT22;3996;49.674;10.716;2024-03-29T08:23:40;10.90;10.80
7902;DHT22;3996;49.674;10.716;2024-03-29T08:26:06;10.90;10.50
7902;DHT22;3996;49.674;10.716;2024-03-29T08:28:33;10.80;9.90
7902;DHT22;3996;49.674;10.716;2024-03-29T08:31:00;10.80;9.70
7902;DHT22;3996;49.674;10.716;2024-03-29T08:33:26;10.80;10.40
7902;DHT22;3996;49.674;10.716;2024-03-29T08:35:52;10.80;9.10
7902;DHT22;3996;49.674;10.716;2024-03-29T08:38:17;10.80;8.80
7902;DHT22;3996;49.674;10.716;2024-03-29T08:40:43;10.80;9.10
7902;DHT22;3996;49.674;10.716;2024-03-29T08:43:11;10.80;9.80
7902;DHT22;3996;49.674;10.716;2024-03-29T08:45:37;10.80;10.50
7902;DHT22;3996;49.674;10.716;2024-03-29T08:48:07;10.80;11.40
7902;DHT22;3996;49.674;10.716;2024-03-29T08:50:33;10.80;9.70
7902;DHT22;3996;49.674;10.716;2024-03-29T08:52:59;10.80;8.70
7902;DHT22;3996;49.674;10.716;2024-03-29T08:55:25;10.80;9.60
7902;DHT22;3996;49.674;10.716;2024-03-29T08:57:51;10.70;9.20
7902;DHT22;3996;49.674;10.716;2024-03-29T09:00:16;10.70;9.80
7902;DHT22;3996;49.674;10.716;2024-03-29T09:02:42;10.80;9.90
7902;DHT22;3996;49.674;10.716;2024-03-29T09:05:08;10.70;10.50
7902;DHT22;3996;49.674;10.716;2024-03-29T09:07:33;10.70;11.80
7902;DHT22;3996;49.674;10.716;2024-03-29T09:09:59;10.70;12.90
7902;DHT22;3996;49.674;10.716;2024-03-29T09:12:25;10.70;10.50
7902;DHT22;3996;49.674;10.716;2024-03-29T09:14:51;10.60;13.50
7902;DHT22;3996;49.674;10.716;2024-03-29T09:17:19;10.60;15.60
7902;DHT22;3996;49.674;10.716;2024-03-29T09:19:49;10.50;14.50
7902;DHT22;3996;49.674;10.716;2024-03-29T09:22:16;10.50;17.30
7902;DHT22;3996;49.674;10.716;2024-03-29T09:24:41;10.30;18.30
7902;DHT22;3996;49.674;10.716;2024-03-29T09:27:07;10.10;20.80
7902;DHT22;3996;49.674;10.716;2024-03-29T09:29:32;10.10;21.80
7902;DHT22;3996;49.674;10.716;2024-03-29T09:31:59;10.00;21.90
7902;DHT22;3996;49.674;10.716;2024-03-29T09:34:24;10.00;25.20
7902;DHT22;3996;49.674;10.716;2024-03-29T09:36:50;9.90;28.20
7902;DHT22;3996;49.674;10.716;2024-03-29T09:39:15;9.80;29.30
7902;DHT22;3996;49.674;10.716;2024-03-29T09:41:46;9.70;29.60
7902;DHT22;3996;49.674;10.716;2024-03-29T09:44:12;9.60;31.60
7902;DHT22;3996;49.674;10.716;2024-03-29T09:46:39;9.60;33.70
7902;DHT22;3996;49.674;10.716;2024-03-29T09:49:07;9.50;36.60
7902;DHT22;3996;49.674;10.716;2024-03-29T09:51:34;9.40;38.00
7902;DHT22;3996;49.674;10.716;2024-03-29T09:54:00;9.50;40.00
7902;DHT22;3996;49.674;10.716;2024-03-29T09:56:27;9.60;41.20
7902;DHT22;3996;49.674;10.716;2024-03-29T09:58:53;9.70;41.90
7902;DHT22;3996;49.674;10.716;2024-03-29T10:01:19;9.60;45.50
7902;DHT22;3996;49.674;10.716;2024-03-29T10:03:51;9.60;48.20
7902;DHT22;3996;49.674;10.716;2024-03-29T10:06:19;9.50;49.80
7902;DHT22;3996;49.674;10.716;2024-03-29T10:08:45;9.50;51.80
7902;DHT22;3996;49.674;10.716;2024-03-29T10:11:11;9.50;51.00
7902;DHT22;3996;49.674;10.716;2024-03-29T10:13:37;9.70;51.30
7902;DHT22;3996;49.674;10.716;2024-03-29T10:16:03;9.80;50.10
7902;DHT22;3996;49.674;10.716;2024-03-29T10:18:29;9.80;49.20
7902;DHT22;3996;49.674;10.716;2024-03-29T10:21:07;9.80;50.30
7902;DHT22;3996;49.674;10.716;2024-03-29T10:23:34;9.90;50.60
7902;DHT22;3996;49.674;10.716;2024-03-29T10:26:03;9.90;51.60
7902;DHT22;3996;49.674;10.716;2024-03-29T10:28:33;10.00;48.90
7902;DHT22;3996;49.674;10.716;2024-03-29T10:31:01;10.10;48.10
7902;DHT22;3996;49.674;10.716;2024-03-29T10:33:29;10.20;51.60
7902;DHT22;3996;49.674;10.716;2024-03-29T10:35:56;10.20;51.40
7902;DHT22;3996;49.674;10.716;2024-03-29T10:38:22;10.20;48.10
7902;DHT22;3996;49.674;10.716;2024-03-29T10:40:48;10.30;48.50
7902;DHT22;3996;49.674;10.716;2024-03-29T10:43:16;10.40;49.60
7902;DHT22;3996;49.674;10.716;2024-03-29T10:45:42;10.50;49.70
7902;DHT22;3996;49.674;10.716;2024-03-29T10:48:09;10.50;50.10
7902;DHT22;3996;49.674;10.716;2024-03-29T10:50:36;10.50;47.40
7902;DHT22;3996;49.674;10.716;2024-03-29T10:53:03;10.50;49.70
7902;DHT22;3996;49.674;10.716;2024-03-29T10:55:36;10.40;48.10
7902;DHT22;3996;49.674;10.716;2024-03-29T10:58:05;10.40;50.10
7902;DHT22;3996;49.674;10.716;2024-03-29T11:00:38;10.30;50.50
7902;DHT22;3996;49.674;10.716;2024-03-29T11:03:23;10.30;50.30
7902;DHT22;3996;49.674;10.716;2024-03-29T11:05:51;10.20;49.10
7902;DHT22;3996;49.674;10.716;2024-03-29T11:08:26;10.20;50.50
7902;DHT22;3996;49.674;10.716;2024-03-29T11:10:54;10.20;50.70
7902;DHT22;3996;49.674;10.716;2024-03-29T11:16:08;10.30;49.50
7902;DHT22;3996;49.674;10.716;2024-03-29T11:18:35;10.40;49.00
7902;DHT22;3996;49.674;10.716;2024-03-29T11:21:02;10.30;49.50
7902;DHT22;3996;49.674;10.716;2024-03-29T11:23:31;10.40;49.60
7902;DHT22;3996;49.674;10.716;2024-03-29T11:25:58;10.40;50.40
7902;DHT22;3996;49.674;10.716;2024-03-29T11:28:31;10.30;51.10
7902;DHT22;3996;49.674;10.716;2024-03-29T11:31:07;10.30;52.00
7902;DHT22;3996;49.674;10.716;2024-03-29T11:36:21;10.50;52.40
7902;DHT22;3996;49.674;10.716;2024-03-29T11:38:52;10.60;51.40
7902;DHT22;3996;49.674;10.716;2024-03-29T11:41:20;10.60;51.40
7902;DHT22;3996;49.674;10.716;2024-03-29T11:43:49;10.70;50.30
7902;DHT22;3996;49.674;10.716;2024-03-29T11:46:16;10.70;51.10
7902;DHT22;3996;49.674;10.716;2024-03-29T11:48:42;10.70;51.00
7902;DHT22;3996;49.674;10.716;2024-03-29T11:51:11;10.60;50.80
7902;DHT22;3996;49.674;10.716;2024-03-29T11:53:39;10.60;51.90
7902;DHT22;3996;49.674;10.716;2024-03-29T11:56:05;10.60;52.30
7902;DHT22;3996;49.674;10.716;2024-03-29T11:58:33;10.60;51.80
7902;DHT22;3996;49.674;10.716;2024-03-29T12:01:00;10.60;51.70
7902;DHT22;3996;49.674;10.716;2024-03-29T12:03:29;10.60;52.80
7902;DHT22;3996;49.674;10.716;2024-03-29T12:05:57;10.60;53.10
7902;DHT22;3996;49.674;10.716;2024-03-29T12:08:31;10.70;53.60
7902;DHT22;3996;49.674;10.716;2024-03-29T12:11:01;10.70;54.60
7902;DHT22;3996;49.674;10.716;2024-03-29T12:13:27;10.70;54.10
7902;DHT22;3996;49.674;10.716;2024-03-29T12:15:53;10.80;53.50
7902;DHT22;3996;49.674;10.716;2024-03-29T12:18:20;10.80;52.90
7902;DHT22;3996;49.674;10.716;2024-03-29T12:20:47;10.90;53.30
7902;DHT22;3996;49.674;10.716;2024-03-29T12:23:15;11.00;53.10
7902;DHT22;3996;49.674;10.716;2024-03-29T12:25:41;11.10;53.50
7902;DHT22;3996;49.674;10.716;2024-03-29T12:28:09;11.20;51.00
7902;DHT22;3996;49.674;10.716;2024-03-29T12:30:34;11.40;49.10
7902;DHT22;3996;49.674;10.716;2024-03-29T12:33:08;11.60;48.60
7902;DHT22;3996;49.674;10.716;2024-03-29T12:35:41;11.90;45.30
7902;DHT22;3996;49.674;10.716;2024-03-29T12:38:08;12.10;45.20
7902;DHT22;3996;49.674;10.716;2024-03-29T12:40:33;12.00;42.60
7902;DHT22;3996;49.674;10.716;2024-03-29T12:43:06;12.00;42.80
7902;DHT22;3996;49.674;10.716;2024-03-29T12:45:34;11.90;43.40
7902;DHT22;3996;49.674;10.716;2024-03-29T12:48:00;11.90;42.30
7902;DHT22;3996;49.674;10.716;2024-03-29T12:50:27;11.90;42.30
7902;DHT22;3996;49.674;10.716;2024-03-29T12:52:54;12.00;43.20
7902;DHT22;3996;49.674;10.716;2024-03-29T12:55:21;12.00;45.60
7902;DHT22;3996;49.674;10.716;2024-03-29T12:57:48;12.10;42.90
7902;DHT22;3996;49.674;10.716;2024-03-29T13:00:14;12.10;43.40
7902;DHT22;3996;49.674;10.716;2024-03-29T13:02:40;12.20;42.80
7902;DHT22;3996;49.674;10.716;2024-03-29T13:05:05;12.30;42.40
7902;DHT22;3996;49.674;10.716;2024-03-29T13:07:32;12.40;41.90
7902;DHT22;3996;49.674;10.716;2024-03-29T13:09:59;12.40;38.60
7902;DHT22;3996;49.674;10.716;2024-03-29T13:12:31;12.40;37.30
7902;DHT22;3996;49.674;10.716;2024-03-29T13:15:01;12.30;38.20
7902;DHT22;3996;49.674;10.716;2024-03-29T13:17:29;12.20;40.00
7902;DHT22;3996;49.674;10.716;2024-03-29T13:19:55;12.20;40.40
7902;DHT22;3996;49.674;10.716;2024-03-29T13:22:20;12.20;41.30
7902;DHT22;3996;49.674;10.716;2024-03-29T13:24:46;12.20;40.40
7902;DHT22;3996;49.674;10.716;2024-03-29T13:27:12;12.30;40.70
7902;DHT22;3996;49.674;10.716;2024-03-29T13:29:38;12.30;40.50
7902;DHT22;3996;49.674;10.716;2024-03-29T13:32:04;12.40;41.30
7902;DHT22;3996;49.674;10.716;2024-03-29T13:34:30;12.40;39.50
7902;DHT22;3996;49.674;10.716;2024-03-29T13:36:55;12.40;40.90
7902;DHT22;3996;49.674;10.716;2024-03-29T13:39:21;12.50;40.40
7902;DHT22;3996;49.674;10.716;2024-03-29T13:41:49;12.40;38.40
7902;DHT22;3996;49.674;10.716;2024-03-29T13:44:15;12.50;40.00
7902;DHT22;3996;49.674;10.716;2024-03-29T13:46:43;12.60;40.20
7902;DHT22;3996;49.674;10.716;2024-03-29T13:49:09;12.80;41.20
7902;DHT22;3996;49.674;10.716;2024-03-29T13:51:34;12.90;40.00
7902;DHT22;3996;49.674;10.716;2024-03-29T13:54:00;13.00;37.30
7902;DHT22;3996;49.674;10.716;2024-03-29T13:56:25;13.10;35.80
7902;DHT22;3996;49.674;10.716;2024-03-29T13:58:51;13.20;36.00
7902;DHT22;3996;49.674;10.716;2024-03-29T14:01:17;13.60;35.10
7902;DHT22;3996;49.674;10.716;2024-03-29T14:03:43;14.00;34.00
7902;DHT22;3996;49.674;10.716;2024-03-29T14:06:09;14.10;34.60
7902;DHT22;3996;49.674;10.716;2024-03-29T14:08:35;14.20;33.70
7902;DHT22;3996;49.674;10.716;2024-03-29T14:11:01;14.20;33.50
7902;DHT22;3996;49.674;10.716;2024-03-29T14:13:27;14.20;31.40
7902;DHT22;3996;49.674;10.716;2024-03-29T14:15:54;14.20;30.20
7902;DHT22;3996;49.674;10.716;2024-03-29T14:18:20;14.10;30.80
7902;DHT22;3996;49.674;10.716;2024-03-29T14:20:46;14.10;31.80
7902;DHT22;3996;49.674;10.716;2024-03-29T14:23:11;14.10;33.60
7902;DHT22;3996;49.674;10.716;2024-03-29T14:25:40;14.10;32.20
7902;DHT22;3996;49.674;10.716;2024-03-29T14:28:06;14.00;31.60
7902;DHT22;3996;49.674;10.716;2024-03-29T14:30:32;13.90;31.60
7902;DHT22;3996;49.674;10.716;2024-03-29T14:32:57;13.90;32.80
7902;DHT22;3996;49.674;10.716;2024-03-29T14:35:28;13.80;33.90
7902;DHT22;3996;49.674;10.716;2024-03-29T14:37:56;13.70;34.10
7902;DHT22;3996;49.674;10.716;2024-03-29T14:40:21;13.60;35.00
7902;DHT22;3996;49.674;10.716;2024-03-29T14:42:47;13.60;36.20
7902;DHT22;3996;49.674;10.716;2024-03-29T14:45:13;13.60;37.20
7902;DHT22;3996;49.674;10.716;2024-03-29T14:47:38;13.80;39.10
7902;DHT22;3996;49.674;10.716;2024-03-29T14:50:04;14.10;39.40
7902;DHT22;3996;49.674;10.716;2024-03-29T14:52:36;14.40;38.50
7902;DHT22;3996;49.674;10.716;2024-03-29T14:55:02;14.70;36.40
7902;DHT22;3996;49.674;10.716;2024-03-29T14:57:28;14.90;34.60
7902;DHT22;3996;49.674;10.716;2024-03-29T14:59:53;14.90;31.60
7902;DHT22;3996;49.674;10.716;2024-03-29T15:02:19;14.70;30.60
7902;DHT22;3996;49.674;10.716;2024-03-29T15:04:45;14.60;30.70
7902;DHT22;3996;49.674;10.716;2024-03-29T15:07:10;14.70;30.30
7902;DHT22;3996;49.674;10.716;2024-03-29T15:09:36;14.50;29.80
7902;DHT22;3996;49.674;10.716;2024-03-29T15:12:02;14.60;31.50
7902;DHT22;3996;49.674;10.716;2024-03-29T15:14:29;14.60;30.30
7902;DHT22;3996;49.674;10.716;2024-03-29T15:16:55;14.60;30.10
7902;DHT22;3996;49.674;10.716;2024-03-29T15:19:21;14.70;30.10
7902;DHT22;3996;49.674;10.716;2024-03-29T15:21:47;14.70;30.70
7902;DHT22;3996;49.674;10.716;2024-03-29T15:24:14;14.60;31.20
7902;DHT22;3996;49.674;10.716;2024-03-29T15:26:40;14.50;30.90
7902;DHT22;3996;49.674;10.716;2024-03-29T15:29:05;14.50;31.40
7902;DHT22;3996;49.674;10.716;2024-03-29T15:31:39;14.40;29.60
7902;DHT22;3996;49.674;10.716;2024-03-29T15:34:06;14.20;29.20
7902;DHT22;3996;49.674;10.716;2024-03-29T15:36:33;14.10;29.60
7902;DHT22;3996;49.674;10.716;2024-03-29T15:38:59;14.20;30.20
7902;DHT22;3996;49.674;10.716;2024-03-29T15:41:34;14.20;30.00
7902;DHT22;3996;49.674;10.716;2024-03-29T15:44:00;14.20;32.30
7902;DHT22;3996;49.674;10.716;2024-03-29T15:46:27;14.40;33.20
7902;DHT22;3996;49.674;10.716;2024-03-29T15:48:52;14.40;32.10
7902;DHT22;3996;49.674;10.716;2024-03-29T15:51:18;14.40;31.20
7902;DHT22;3996;49.674;10.716;2024-03-29T15:53:44;14.40;31.40
7902;DHT22;3996;49.674;10.716;2024-03-29T15:56:09;14.30;32.60
7902;DHT22;3996;49.674;10.716;2024-03-29T15:58:35;14.30;32.40